Weather at La Désirade Airport

Public forecast

Using degrees Celsius for public forecast. Weather courtesy of forecast.io.

Closest aviation weather report (METAR) to La Désirade Airport

Closest report is Pointe-à-Pitre Le Raizet, 25.9 nm (47.9 km) W. Retrieved 2021/03/06 03:30 UTC (38 minutes ago):

TFFR 060330Z AUTO 11005KT CAVOK 23/20 Q1016 NOSIG

Closest aviation forecast (TAF) to La Désirade Airport

Closest forecast is Pointe-à-Pitre Le Raizet, 25.9 nm (47.9 km) W. Retrieved 2021-03-06 00:20 UTC (4 hours ago):

TAF TFFR 052300Z 0600/0624 11010KT 9999 SCT030 TEMPO 0600/0612 VRB03KT PROB30 TEMPO 0618/0622 4500 SHRA FEW020TCU